createdAt,value
2019-03-26T00:01:22.882Z,20.75
2019-03-26T00:03:49.557Z,20.74
2019-03-26T00:06:16.197Z,20.73
2019-03-26T00:08:42.835Z,20.76
2019-03-26T00:11:09.499Z,20.81
2019-03-26T00:13:36.236Z,20.80
2019-03-26T00:16:02.883Z,20.81
2019-03-26T00:18:29.520Z,20.79
2019-03-26T00:20:56.196Z,20.81
2019-03-26T00:23:22.931Z,20.76
2019-03-26T00:25:49.572Z,20.83
2019-03-26T00:28:16.226Z,20.82
2019-03-26T00:30:42.859Z,20.85
2019-03-26T00:33:09.548Z,20.87
2019-03-26T00:35:36.259Z,20.87
2019-03-26T00:38:02.896Z,20.93
2019-03-26T00:40:29.716Z,20.93
2019-03-26T00:42:56.364Z,20.93
2019-03-26T00:48:10.387Z,20.90
2019-03-26T00:50:37.087Z,20.89
2019-03-26T00:53:03.736Z,20.93
2019-03-26T00:55:30.376Z,20.95
2019-03-26T00:57:57.029Z,20.97
2019-03-26T01:00:23.680Z,21.03
2019-03-26T01:02:50.329Z,21.05
2019-03-26T01:05:16.972Z,21.09
2019-03-26T01:07:43.605Z,21.09
2019-03-26T01:10:12.302Z,21.17
2019-03-26T01:12:36.965Z,21.16
2019-03-26T01:15:03.612Z,21.12
2019-03-26T01:17:30.248Z,21.17
2019-03-26T01:19:56.932Z,21.20
2019-03-26T01:22:23.567Z,21.23
2019-03-26T01:24:50.215Z,21.17
2019-03-26T01:27:16.843Z,21.23
2019-03-26T01:29:43.539Z,21.27
2019-03-26T01:32:10.178Z,21.26
2019-03-26T01:34:45.798Z,21.25
2019-03-26T01:37:03.503Z,21.30
2019-03-26T01:39:30.143Z,21.30
2019-03-26T01:41:56.796Z,21.34
2019-03-26T01:44:23.476Z,21.34
2019-03-26T01:46:50.106Z,21.35
2019-03-26T01:49:16.781Z,21.35
2019-03-26T01:51:43.420Z,21.37
2019-03-26T01:54:10.121Z,21.39
2019-03-26T01:56:36.764Z,21.45
2019-03-26T01:59:03.413Z,21.41
2019-03-26T02:01:30.068Z,21.44
2019-03-26T02:03:56.707Z,21.42
2019-03-26T02:06:23.386Z,21.42
2019-03-26T02:08:50.028Z,21.38
2019-03-26T02:11:16.707Z,21.38
2019-03-26T02:13:43.357Z,21.40
2019-03-26T02:16:10.004Z,21.41
2019-03-26T02:18:36.640Z,21.42
2019-03-26T02:21:03.314Z,21.46
2019-03-26T02:23:29.953Z,21.55
2019-03-26T02:25:56.595Z,21.53
2019-03-26T02:28:23.231Z,21.55
2019-03-26T02:30:50.018Z,21.59
2019-03-26T02:33:16.655Z,21.62
2019-03-26T02:35:43.274Z,21.61
2019-03-26T02:38:09.930Z,21.64
2019-03-26T02:40:36.568Z,21.69
2019-03-26T02:43:03.253Z,21.67
2019-03-26T02:45:29.981Z,21.74
2019-03-26T02:47:56.639Z,21.72
2019-03-26T02:50:23.388Z,21.76
2019-03-26T02:52:49.977Z,21.76
2019-03-26T02:55:16.623Z,21.78
2019-03-26T02:57:43.273Z,21.83
2019-03-26T03:00:09.907Z,21.79
2019-03-26T03:02:36.549Z,21.79
2019-03-26T03:05:03.213Z,21.84
2019-03-26T03:07:29.872Z,21.85
2019-03-26T03:09:56.515Z,21.90
2019-03-26T03:12:23.163Z,21.89
2019-03-26T03:14:49.815Z,21.92
2019-03-26T03:17:16.446Z,21.89
2019-03-26T03:19:43.083Z,21.97
2019-03-26T03:22:09.734Z,21.96
2019-03-26T03:24:36.383Z,22.01
2019-03-26T03:27:03.059Z,22.09
2019-03-26T03:29:29.761Z,22.04
2019-03-26T03:31:56.508Z,22.03
2019-03-26T03:34:23.089Z,22.05
2019-03-26T03:36:49.715Z,22.14
2019-03-26T03:39:16.451Z,22.16
2019-03-26T03:41:43.086Z,22.17
2019-03-26T03:44:09.729Z,22.16
2019-03-26T03:46:36.376Z,22.17
2019-03-26T03:49:03.024Z,22.23
2019-03-26T03:51:29.675Z,22.16
2019-03-26T03:53:56.337Z,22.14
2019-03-26T03:56:22.967Z,22.15
2019-03-26T03:58:49.595Z,22.23
2019-03-26T04:01:16.276Z,22.31
2019-03-26T04:03:42.921Z,22.26
2019-03-26T04:06:10.364Z,22.45
2019-03-26T04:08:36.269Z,22.75
2019-03-26T04:11:02.912Z,22.87
2019-03-26T04:13:29.651Z,23.07
2019-03-26T04:15:56.220Z,23.24
2019-03-26T04:18:22.839Z,23.14
2019-03-26T04:20:49.485Z,23.56
2019-03-26T04:23:16.169Z,23.83
2019-03-26T04:25:42.799Z,23.80
2019-03-26T04:28:09.443Z,23.81
2019-03-26T04:30:36.081Z,23.39
2019-03-26T04:33:02.740Z,23.21
2019-03-26T04:35:29.426Z,23.01
2019-03-26T04:37:56.078Z,23.02
2019-03-26T04:40:22.715Z,23.00
2019-03-26T04:42:49.371Z,22.92
2019-03-26T04:45:16.028Z,24.29
2019-03-26T04:47:42.675Z,23.04
2019-03-26T04:50:09.323Z,23.01
2019-03-26T04:52:35.970Z,23.03
2019-03-26T04:55:02.623Z,23.00
2019-03-26T04:57:29.276Z,22.99
2019-03-26T04:59:55.928Z,23.01
2019-03-26T05:02:22.609Z,23.00
2019-03-26T05:04:49.233Z,23.00
2019-03-26T05:07:15.879Z,23.00
2019-03-26T05:09:42.558Z,23.03
2019-03-26T05:12:09.197Z,22.94
2019-03-26T05:14:35.877Z,23.15
2019-03-26T05:17:02.506Z,22.89
2019-03-26T05:19:29.185Z,23.08
2019-03-26T05:21:55.876Z,23.05
2019-03-26T05:24:22.521Z,22.92
2019-03-26T05:26:49.170Z,22.83
2019-03-26T05:29:15.819Z,22.78
2019-03-26T05:31:42.460Z,22.81
2019-03-26T05:34:09.153Z,22.66
2019-03-26T05:36:35.798Z,22.60
2019-03-26T05:39:02.423Z,22.62
2019-03-26T05:41:29.066Z,22.44
2019-03-26T05:43:55.748Z,22.47
2019-03-26T05:46:22.436Z,22.39
2019-03-26T05:48:49.121Z,22.38
2019-03-26T05:51:15.782Z,22.35
2019-03-26T05:53:42.428Z,22.32
2019-03-26T05:56:09.067Z,22.28
2019-03-26T05:58:35.705Z,22.13
2019-03-26T06:01:02.351Z,22.01
2019-03-26T06:03:28.988Z,21.83
2019-03-26T06:05:55.694Z,21.82
2019-03-26T06:08:22.362Z,21.71
2019-03-26T06:10:49.075Z,21.46
2019-03-26T06:13:15.722Z,21.45
2019-03-26T06:15:42.360Z,21.34
2019-03-26T06:18:09.014Z,21.22
2019-03-26T06:20:35.648Z,21.22
2019-03-26T06:23:02.290Z,21.24
2019-03-26T06:25:28.929Z,21.15
2019-03-26T06:27:55.586Z,20.96
2019-03-26T06:30:22.225Z,21.07
2019-03-26T06:32:48.905Z,20.95
2019-03-26T06:35:15.580Z,20.88
2019-03-26T06:37:42.233Z,20.94
2019-03-26T06:40:08.885Z,20.84
2019-03-26T06:42:35.657Z,20.74
2019-03-26T06:45:02.302Z,20.73
2019-03-26T06:47:28.986Z,20.69
2019-03-26T06:49:56.738Z,20.85
2019-03-26T06:52:23.394Z,20.87
2019-03-26T06:54:51.703Z,20.92
2019-03-26T06:57:16.778Z,21.17
2019-03-26T06:59:43.414Z,21.03
2019-03-26T07:02:10.058Z,21.01
2019-03-26T07:04:36.713Z,20.91
2019-03-26T07:07:03.423Z,20.97
2019-03-26T07:09:30.056Z,21.16
2019-03-26T07:11:56.707Z,20.99
2019-03-26T07:14:23.473Z,20.99
2019-03-26T07:16:50.073Z,20.97
2019-03-26T07:19:16.791Z,21.15
2019-03-26T07:21:49.522Z,21.26
2019-03-26T07:24:10.014Z,21.06
2019-03-26T07:26:36.655Z,21.13
2019-03-26T07:29:03.340Z,21.05
2019-03-26T07:31:29.992Z,21.27
2019-03-26T07:33:56.662Z,21.33
2019-03-26T07:36:23.322Z,21.19
2019-03-26T07:38:50.029Z,21.15
2019-03-26T07:41:16.687Z,21.30
2019-03-26T07:43:43.340Z,21.13
2019-03-26T07:46:09.989Z,21.24
2019-03-26T07:48:36.690Z,21.28
2019-03-26T07:51:03.337Z,21.11
2019-03-26T07:53:29.974Z,20.94
2019-03-26T07:55:56.633Z,20.89
2019-03-26T07:58:23.304Z,20.79
2019-03-26T08:00:49.963Z,20.63
2019-03-26T08:03:16.630Z,20.77
2019-03-26T08:05:43.313Z,20.81
2019-03-26T08:08:09.957Z,20.82
2019-03-26T08:10:36.643Z,20.88
2019-03-26T08:13:03.460Z,20.93
2019-03-26T08:15:30.109Z,20.70
2019-03-26T08:17:56.779Z,20.96
2019-03-26T08:20:23.478Z,20.95
2019-03-26T08:22:50.138Z,20.92
2019-03-26T08:25:16.778Z,20.83
2019-03-26T08:27:43.431Z,20.64
2019-03-26T08:30:10.202Z,20.60
2019-03-26T08:32:37.279Z,20.52
2019-03-26T08:35:03.591Z,20.44
2019-03-26T08:37:30.293Z,20.69
2019-03-26T08:39:56.930Z,20.81
2019-03-26T08:42:23.589Z,20.75
2019-03-26T08:44:50.342Z,20.96
2019-03-26T08:47:17.027Z,20.62
2019-03-26T08:49:43.684Z,20.84
2019-03-26T08:52:10.466Z,20.55
2019-03-26T08:54:37.104Z,20.69
2019-03-26T08:57:03.907Z,20.71
2019-03-26T08:59:30.476Z,20.60
2019-03-26T09:01:57.159Z,20.86
2019-03-26T09:04:26.764Z,20.69
2019-03-26T09:06:53.405Z,20.34
2019-03-26T09:09:20.051Z,20.50
2019-03-26T09:11:46.700Z,20.65
2019-03-26T09:14:13.384Z,20.74
2019-03-26T09:16:40.081Z,20.76
2019-03-26T09:19:06.772Z,20.90
2019-03-26T09:21:33.409Z,20.87
2019-03-26T09:24:00.871Z,20.88
2019-03-26T09:26:27.533Z,20.63
2019-03-26T09:28:54.190Z,20.62
2019-03-26T09:31:20.824Z,20.44
2019-03-26T09:33:47.600Z,20.22
2019-03-26T09:36:14.239Z,20.21
2019-03-26T09:38:40.939Z,20.26
2019-03-26T09:41:07.644Z,20.27
2019-03-26T09:43:34.277Z,20.29
2019-03-26T09:46:00.989Z,20.29
2019-03-26T09:48:27.727Z,20.32
2019-03-26T09:50:54.358Z,20.50
2019-03-26T09:53:21.021Z,20.59
2019-03-26T09:55:47.715Z,20.51
2019-03-26T09:58:14.435Z,20.55
2019-03-26T10:00:41.131Z,20.60
2019-03-26T10:03:07.758Z,20.43
2019-03-26T10:05:34.395Z,20.39
2019-03-26T10:08:01.102Z,20.23
2019-03-26T10:10:27.744Z,20.47
2019-03-26T10:12:54.392Z,20.14
2019-03-26T10:15:21.039Z,20.41
2019-03-26T10:17:47.695Z,20.53
2019-03-26T10:20:14.359Z,20.57
2019-03-26T10:22:41.008Z,20.52
2019-03-26T10:25:10.659Z,20.66
2019-03-26T10:27:35.179Z,20.73
2019-03-26T10:30:00.991Z,20.52
2019-03-26T10:32:27.682Z,20.53
2019-03-26T10:34:54.328Z,20.60
2019-03-26T10:37:20.971Z,20.46
2019-03-26T10:39:47.649Z,20.83
2019-03-26T10:42:14.380Z,20.66
2019-03-26T10:44:41.037Z,20.72
2019-03-26T10:47:07.675Z,20.56
2019-03-26T10:49:34.321Z,20.51
2019-03-26T10:52:00.979Z,20.55
2019-03-26T10:54:27.620Z,20.26
2019-03-26T10:56:54.305Z,20.10
2019-03-26T10:59:20.941Z,20.02
2019-03-26T11:01:47.603Z,20.06
2019-03-26T11:04:14.243Z,20.14
2019-03-26T11:06:40.895Z,20.34
2019-03-26T11:09:20.087Z,20.21
2019-03-26T11:11:34.330Z,20.22
2019-03-26T11:14:00.984Z,20.14
2019-03-26T11:16:27.633Z,20.08
2019-03-26T11:18:54.294Z,20.12
2019-03-26T11:21:20.940Z,20.39
2019-03-26T11:23:47.593Z,20.49
2019-03-26T11:26:14.317Z,20.43
2019-03-26T11:28:40.931Z,20.18
2019-03-26T11:31:07.595Z,20.22
2019-03-26T11:33:34.241Z,20.07
2019-03-26T11:36:00.883Z,20.30
2019-03-26T11:38:27.559Z,20.24
2019-03-26T11:40:54.217Z,20.42
2019-03-26T11:43:20.852Z,20.08
2019-03-26T11:45:48.683Z,20.08
2019-03-26T11:48:15.325Z,20.24
2019-03-26T11:50:41.964Z,20.85
2019-03-26T11:53:08.615Z,21.31
2019-03-26T11:55:35.331Z,20.55
2019-03-26T11:58:01.989Z,20.29
2019-03-26T12:00:28.666Z,20.51
2019-03-26T12:02:55.479Z,20.64
2019-03-26T12:05:22.132Z,20.56
2019-03-26T12:07:48.781Z,20.53
2019-03-26T12:10:15.421Z,20.61
2019-03-26T12:12:42.063Z,20.64
2019-03-26T12:15:08.843Z,20.68
2019-03-26T12:17:35.503Z,20.64
2019-03-26T12:20:02.164Z,21.27
2019-03-26T12:22:34.577Z,21.03
2019-03-26T12:25:01.228Z,20.92
2019-03-26T12:27:27.880Z,21.17
2019-03-26T12:29:54.528Z,20.94
2019-03-26T12:32:21.226Z,21.00
2019-03-26T12:34:47.897Z,21.00
2019-03-26T12:37:14.541Z,20.91
2019-03-26T12:39:44.070Z,21.10
2019-03-26T12:42:07.910Z,21.03
2019-03-26T12:44:34.579Z,21.12
2019-03-26T12:47:01.242Z,21.52
2019-03-26T12:49:27.895Z,21.75
2019-03-26T12:51:54.612Z,21.79
2019-03-26T12:54:23.903Z,21.76
2019-03-26T12:56:50.560Z,21.98
2019-03-26T12:59:17.245Z,22.03
2019-03-26T13:01:44.071Z,22.42
2019-03-26T13:04:13.312Z,22.35
2019-03-26T13:06:37.486Z,22.72
2019-03-26T13:09:04.138Z,22.59
2019-03-26T13:11:30.776Z,22.69
2019-03-26T13:13:57.434Z,22.99
2019-03-26T13:16:24.069Z,22.85
2019-03-26T13:18:50.706Z,22.95
2019-03-26T13:21:17.360Z,23.40
2019-03-26T13:23:43.996Z,23.14
2019-03-26T13:26:10.649Z,23.33
2019-03-26T13:28:37.293Z,23.31
2019-03-26T13:31:03.955Z,23.47
2019-03-26T13:33:30.621Z,23.33
2019-03-26T13:35:57.254Z,23.26
2019-03-26T13:38:23.908Z,23.32
2019-03-26T13:40:50.550Z,23.45
2019-03-26T13:43:17.306Z,23.33
2019-03-26T13:45:43.956Z,23.56
2019-03-26T13:48:10.605Z,23.33
2019-03-26T13:50:37.303Z,23.51
2019-03-26T13:53:03.946Z,23.38
2019-03-26T13:55:30.626Z,23.39
2019-03-26T13:57:57.330Z,23.59
2019-03-26T14:00:23.980Z,23.66
2019-03-26T14:02:50.662Z,23.55
2019-03-26T14:05:17.321Z,23.72
2019-03-26T14:07:44.003Z,24.09
2019-03-26T14:10:10.617Z,23.97
2019-03-26T14:12:37.307Z,24.08
2019-03-26T14:15:03.964Z,24.03
2019-03-26T14:17:30.578Z,24.04
2019-03-26T14:19:57.230Z,23.79
2019-03-26T14:22:23.929Z,23.84
2019-03-26T14:24:50.673Z,24.01
2019-03-26T14:27:17.306Z,23.92
2019-03-26T14:29:43.963Z,23.79
2019-03-26T14:32:10.600Z,23.80
2019-03-26T14:34:37.293Z,23.78
2019-03-26T14:37:04.033Z,23.91
2019-03-26T14:39:30.642Z,23.65
2019-03-26T14:41:57.294Z,23.50
2019-03-26T14:44:23.947Z,23.61
2019-03-26T14:46:50.602Z,23.77
2019-03-26T14:49:17.264Z,23.77
2019-03-26T14:51:43.909Z,23.80
2019-03-26T14:54:10.594Z,23.81
2019-03-26T14:56:37.240Z,23.72
2019-03-26T14:59:03.928Z,23.75
2019-03-26T15:01:30.902Z,23.56
2019-03-26T15:03:59.420Z,23.58
2019-03-26T15:06:26.072Z,23.56
2019-03-26T15:08:52.712Z,23.48
2019-03-26T15:11:19.419Z,23.46
2019-03-26T15:13:49.328Z,23.66
2019-03-26T15:16:12.826Z,23.57
2019-03-26T15:18:39.567Z,23.36
2019-03-26T15:21:06.211Z,23.50
2019-03-26T15:23:32.856Z,23.26
2019-03-26T15:25:59.498Z,23.37
2019-03-26T15:28:26.176Z,23.32
2019-03-26T15:30:52.838Z,23.07
2019-03-26T15:33:19.485Z,23.09
2019-03-26T15:35:46.153Z,23.07
2019-03-26T15:38:12.822Z,22.97
2019-03-26T15:40:39.456Z,23.08
2019-03-26T15:43:06.151Z,23.03
2019-03-26T15:45:32.792Z,23.03
2019-03-26T15:47:59.441Z,22.96
2019-03-26T15:50:26.078Z,23.05
2019-03-26T15:52:52.728Z,22.88
2019-03-26T15:55:19.449Z,22.99
2019-03-26T15:57:46.149Z,23.02
2019-03-26T16:00:12.781Z,22.82
2019-03-26T16:02:39.449Z,23.04
2019-03-26T16:05:06.086Z,23.01
2019-03-26T16:07:33.222Z,22.98
2019-03-26T16:09:59.574Z,22.83
2019-03-26T16:12:26.244Z,23.04
2019-03-26T16:14:52.913Z,23.06
2019-03-26T16:17:19.607Z,23.10
2019-03-26T16:19:46.250Z,23.18
2019-03-26T16:22:12.928Z,23.22
2019-03-26T16:24:39.567Z,23.21
2019-03-26T16:27:06.210Z,23.21
2019-03-26T16:29:32.877Z,23.23
2019-03-26T16:31:59.553Z,23.33
2019-03-26T16:34:27.463Z,23.33
2019-03-26T16:36:59.330Z,23.19
2019-03-26T16:39:19.537Z,23.15
2019-03-26T16:41:49.325Z,23.32
2019-03-26T16:44:12.849Z,23.35
2019-03-26T16:46:39.513Z,23.32
2019-03-26T16:49:06.151Z,23.35
2019-03-26T16:51:32.830Z,23.33
2019-03-26T16:53:59.539Z,23.45
2019-03-26T16:56:26.193Z,23.33
2019-03-26T16:58:52.845Z,23.49
2019-03-26T17:01:19.496Z,23.36
2019-03-26T17:03:46.182Z,23.41
2019-03-26T17:06:12.813Z,23.29
2019-03-26T17:08:39.505Z,23.45
2019-03-26T17:11:06.148Z,23.35
2019-03-26T17:13:32.789Z,23.43
2019-03-26T17:15:59.433Z,23.67
2019-03-26T17:18:26.099Z,23.85
2019-03-26T17:20:52.752Z,23.96
2019-03-26T17:23:19.394Z,23.98
2019-03-26T17:25:46.077Z,23.92
2019-03-26T17:28:12.711Z,23.78
2019-03-26T17:30:39.351Z,23.63
2019-03-26T17:33:06.001Z,23.56
2019-03-26T17:35:32.641Z,23.46
2019-03-26T17:38:00.380Z,23.35
2019-03-26T17:40:25.955Z,23.26
2019-03-26T17:42:52.636Z,23.23
2019-03-26T17:45:19.279Z,23.28
2019-03-26T17:47:45.924Z,23.23
2019-03-26T17:50:12.563Z,23.23
2019-03-26T17:52:42.137Z,23.34
2019-03-26T17:55:08.877Z,23.29
2019-03-26T17:57:35.577Z,23.22
2019-03-26T18:00:02.261Z,23.18
2019-03-26T18:02:28.936Z,23.08
2019-03-26T18:04:55.627Z,22.98
2019-03-26T18:07:22.272Z,22.88
2019-03-26T18:09:48.907Z,22.83
2019-03-26T18:12:15.582Z,22.75
2019-03-26T18:14:42.191Z,22.63
2019-03-26T18:17:08.871Z,22.56
2019-03-26T18:19:35.514Z,22.47
2019-03-26T18:22:02.189Z,22.32
2019-03-26T18:24:30.814Z,22.30
2019-03-26T18:26:57.555Z,22.20
2019-03-26T18:29:24.155Z,22.04
2019-03-26T18:31:50.799Z,21.97
2019-03-26T18:34:17.460Z,21.87
2019-03-26T18:36:44.100Z,21.86
2019-03-26T18:39:10.738Z,21.78
2019-03-26T18:41:37.400Z,21.72
2019-03-26T18:44:04.038Z,21.65
2019-03-26T18:46:30.722Z,21.65
2019-03-26T18:48:57.386Z,21.56
2019-03-26T18:51:24.031Z,21.48
2019-03-26T18:53:50.720Z,21.37
2019-03-26T18:56:17.350Z,21.32
2019-03-26T18:58:44.040Z,21.25
2019-03-26T19:01:10.679Z,21.19
2019-03-26T19:03:37.352Z,21.18
2019-03-26T19:06:04.092Z,21.10
2019-03-26T19:08:30.776Z,21.03
2019-03-26T19:10:57.498Z,20.99
2019-03-26T19:13:24.119Z,20.91
2019-03-26T19:15:50.752Z,20.87
2019-03-26T19:18:17.392Z,20.83
2019-03-26T19:20:44.032Z,20.79
2019-03-26T19:23:10.688Z,20.68
2019-03-26T19:25:37.325Z,20.66
2019-03-26T19:28:04.016Z,20.59
2019-03-26T19:30:30.651Z,20.52
2019-03-26T19:32:57.811Z,20.46
2019-03-26T19:35:23.960Z,20.42
2019-03-26T19:37:50.605Z,20.34
2019-03-26T19:40:17.243Z,20.29
2019-03-26T19:42:43.932Z,20.25
2019-03-26T19:45:10.576Z,20.16
2019-03-26T19:47:37.224Z,20.10
2019-03-26T19:50:03.866Z,20.06
2019-03-26T19:52:30.547Z,20.00
2019-03-26T19:54:57.293Z,20.00
2019-03-26T19:57:23.979Z,19.92
2019-03-26T19:59:50.630Z,19.92
2019-03-26T20:02:17.271Z,19.85
2019-03-26T20:04:43.915Z,19.81
2019-03-26T20:07:10.600Z,19.79
2019-03-26T20:09:37.247Z,19.66
2019-03-26T20:12:03.879Z,19.65
2019-03-26T20:14:30.526Z,19.60
2019-03-26T20:16:57.158Z,19.59
2019-03-26T20:19:23.853Z,19.50
2019-03-26T20:21:52.474Z,19.47
2019-03-26T20:24:19.114Z,19.39
2019-03-26T20:26:45.829Z,19.36
2019-03-26T20:29:12.470Z,19.31
2019-03-26T20:31:39.144Z,19.31
2019-03-26T20:34:05.798Z,19.21
2019-03-26T20:36:32.483Z,19.21
2019-03-26T20:38:59.120Z,19.12
2019-03-26T20:41:25.756Z,19.10
2019-03-26T20:43:52.404Z,18.99
2019-03-26T20:46:19.079Z,18.99
2019-03-26T20:48:45.725Z,18.91
2019-03-26T20:51:12.365Z,18.87
2019-03-26T20:53:39.044Z,18.83
2019-03-26T20:56:05.692Z,18.81
2019-03-26T20:58:32.379Z,18.75
2019-03-26T21:00:59.025Z,18.70
2019-03-26T21:03:25.671Z,18.64
2019-03-26T21:05:52.336Z,18.58
2019-03-26T21:08:19.009Z,18.55
2019-03-26T21:10:45.647Z,18.52
2019-03-26T21:13:12.323Z,18.48
2019-03-26T21:15:38.961Z,18.43
2019-03-26T21:18:05.607Z,18.39
2019-03-26T21:20:32.239Z,18.36
2019-03-26T21:22:58.938Z,18.31
2019-03-26T21:25:25.581Z,18.28
2019-03-26T21:27:52.277Z,18.21
2019-03-26T21:30:18.918Z,18.16
2019-03-26T21:32:45.607Z,18.11
2019-03-26T21:35:12.272Z,18.10
2019-03-26T21:37:38.899Z,18.04
2019-03-26T21:40:05.652Z,18.02
2019-03-26T21:42:32.274Z,17.95
2019-03-26T21:44:58.913Z,17.92
2019-03-26T21:47:25.651Z,17.88
2019-03-26T21:49:52.302Z,17.80
2019-03-26T21:52:18.937Z,17.78
2019-03-26T21:54:45.574Z,17.75
2019-03-26T21:57:12.255Z,17.69
2019-03-26T21:59:38.898Z,17.64
2019-03-26T22:02:05.573Z,17.66
2019-03-26T22:04:32.205Z,17.61
2019-03-26T22:06:58.891Z,17.58
2019-03-26T22:09:25.537Z,17.51
2019-03-26T22:11:52.217Z,17.51
2019-03-26T22:14:18.906Z,17.50
2019-03-26T22:16:45.560Z,17.49
2019-03-26T22:19:12.327Z,17.45
2019-03-26T22:21:38.883Z,17.45
2019-03-26T22:24:05.563Z,17.39
2019-03-26T22:26:32.226Z,17.39
2019-03-26T22:28:58.887Z,17.30
2019-03-26T22:31:25.522Z,17.31
2019-03-26T22:33:52.164Z,17.29
2019-03-26T22:36:18.797Z,17.25
2019-03-26T22:38:45.470Z,17.25
2019-03-26T22:41:12.243Z,17.25
2019-03-26T22:43:38.881Z,17.19
2019-03-26T22:46:05.565Z,17.21
2019-03-26T22:48:32.241Z,17.19
2019-03-26T22:50:58.880Z,17.16
2019-03-26T22:53:25.550Z,17.16
2019-03-26T22:55:52.188Z,17.14
2019-03-26T22:58:18.865Z,17.11
2019-03-26T23:00:45.509Z,17.14
2019-03-26T23:03:12.200Z,17.09
2019-03-26T23:05:38.847Z,17.05
2019-03-26T23:08:05.481Z,17.01
2019-03-26T23:10:32.177Z,17.02
2019-03-26T23:12:58.813Z,17.01
2019-03-26T23:15:25.565Z,17.00
2019-03-26T23:17:52.231Z,16.96
2019-03-26T23:20:18.879Z,16.99
2019-03-26T23:22:45.527Z,16.97
2019-03-26T23:25:12.167Z,16.96
2019-03-26T23:27:38.819Z,16.91
2019-03-26T23:30:05.466Z,17.03
2019-03-26T23:32:32.105Z,16.90
2019-03-26T23:34:58.744Z,16.92
2019-03-26T23:37:25.439Z,16.88
2019-03-26T23:39:52.134Z,16.86
2019-03-26T23:42:18.757Z,16.83
2019-03-26T23:44:57.788Z,16.86
2019-03-26T23:47:12.108Z,16.82
2019-03-26T23:49:38.745Z,16.84
2019-03-26T23:52:05.417Z,16.79
2019-03-26T23:54:32.079Z,16.77
2019-03-26T23:56:58.736Z,16.79
2019-03-26T23:59:25.369Z,16.77
